createdAt,value
2023-01-02T00:00:30.732Z,508.00
2023-01-02T00:01:30.673Z,506.00
2023-01-02T00:02:30.786Z,511.00
2023-01-02T00:03:30.818Z,507.00
2023-01-02T00:55:43.622Z,500.00
2023-01-02T00:56:44.586Z,500.00
2023-01-02T00:57:44.578Z,500.00
2023-01-02T00:58:44.570Z,500.00
2023-01-02T00:59:44.562Z,500.00
2023-01-02T01:00:44.580Z,500.00
2023-01-02T01:01:44.720Z,459.00
2023-01-02T01:02:44.617Z,442.00
2023-01-02T01:03:44.532Z,447.00
2023-01-02T01:04:44.522Z,457.00
2023-01-02T01:05:44.506Z,488.00
2023-01-02T01:06:44.498Z,502.00
2023-01-02T01:07:44.490Z,498.00
2023-01-02T01:08:44.481Z,500.00
2023-01-02T01:09:44.477Z,500.00
2023-01-02T01:10:44.466Z,501.00
2023-01-02T01:11:44.485Z,500.00
2023-01-02T01:12:44.444Z,500.00
2023-01-02T01:13:44.439Z,500.00
2023-01-02T01:14:44.428Z,500.00
2023-01-02T01:15:44.425Z,504.00
2023-01-02T01:16:44.433Z,501.00
2023-01-02T01:17:44.401Z,502.00
2023-01-02T01:18:44.399Z,505.00
2023-01-02T01:19:44.383Z,502.00
2023-01-02T01:20:44.377Z,500.00
2023-01-02T01:21:44.382Z,500.00
2023-01-02T01:22:44.353Z,500.00
2023-01-02T01:23:44.357Z,501.00
2023-01-02T01:24:44.341Z,502.00
2023-01-02T01:25:44.331Z,507.00
2023-01-02T01:26:44.324Z,505.00
2023-01-02T01:27:44.337Z,501.00
2023-01-02T01:28:44.314Z,504.00
2023-01-02T01:29:44.300Z,503.00
2023-01-02T01:30:44.287Z,505.00
2023-01-02T01:31:44.317Z,506.00
2023-01-02T01:32:44.274Z,505.00
2023-01-02T01:33:44.266Z,503.00
2023-01-02T01:34:44.253Z,510.00
2023-01-02T01:35:44.244Z,510.00
2023-01-02T01:36:44.241Z,507.00
2023-01-02T01:37:44.226Z,504.00
2023-01-02T01:38:44.220Z,506.00
2023-01-02T01:39:44.211Z,509.00
2023-01-02T01:40:44.201Z,509.00
2023-01-02T01:41:44.197Z,507.00
2023-01-02T01:42:44.183Z,501.00
2023-01-02T01:43:44.210Z,505.00
2023-01-02T01:44:44.168Z,502.00
2023-01-02T01:45:44.265Z,501.00
2023-01-02T01:46:44.152Z,500.00
2023-01-02T01:47:44.150Z,502.00
2023-01-02T01:48:44.140Z,503.00
2023-01-02T01:49:44.121Z,504.00
2023-01-02T01:50:44.111Z,504.00
2023-01-02T01:51:44.106Z,502.00
2023-01-02T01:52:44.098Z,507.00
2023-01-02T01:53:44.088Z,506.00
2023-01-02T01:54:44.081Z,504.00
2023-01-02T01:55:44.069Z,505.00
2023-01-02T01:56:44.058Z,507.00
2023-01-02T01:57:44.087Z,506.00
2023-01-02T01:58:44.046Z,506.00
2023-01-02T01:59:44.067Z,507.00
2023-01-02T02:00:44.067Z,506.00
2023-01-02T02:01:44.239Z,504.00
2023-01-02T02:02:44.106Z,503.00
2023-01-02T02:03:44.006Z,504.00
2023-01-02T02:04:44.001Z,506.00
2023-01-02T02:05:43.988Z,501.00
2023-01-02T02:06:43.980Z,509.00
2023-01-02T02:08:43.984Z,503.00
2023-01-02T02:09:43.949Z,506.00
2023-01-02T02:13:43.916Z,509.00
2023-01-02T04:08:42.925Z,512.00
2023-01-02T04:09:42.903Z,518.00
2023-01-02T04:10:42.901Z,520.00
2023-01-02T04:11:42.893Z,514.00
2023-01-02T04:12:42.878Z,515.00
2023-01-02T04:13:42.871Z,515.00
2023-01-02T04:14:42.862Z,516.00
2023-01-02T04:15:42.872Z,512.00
2023-01-02T04:16:42.844Z,515.00
2023-01-02T04:17:42.832Z,514.00
2023-01-02T04:18:46.565Z,514.00
2023-01-02T04:23:42.812Z,516.00
2023-01-02T05:18:42.316Z,513.00
2023-01-02T05:19:42.298Z,516.00
2023-01-02T05:20:42.291Z,516.00
2023-01-02T05:21:42.282Z,511.00
2023-01-02T05:22:42.271Z,510.00
2023-01-02T05:23:42.266Z,502.00
2023-01-02T05:24:42.254Z,514.00
2023-01-02T05:25:42.256Z,515.00
2023-01-02T05:26:42.235Z,511.00
2023-01-02T05:27:42.264Z,510.00
2023-01-02T05:28:42.219Z,510.00
2023-01-02T05:29:42.220Z,512.00
2023-01-02T05:30:42.199Z,512.00
2023-01-02T05:31:42.250Z,515.00
2023-01-02T05:32:42.193Z,515.00
2023-01-02T05:33:42.181Z,513.00
2023-01-02T22:46:33.149Z,521.00
2023-01-02T22:48:33.087Z,525.00
2023-01-02T22:49:33.079Z,520.00
2023-01-02T22:50:33.075Z,523.00
2023-01-02T22:52:33.052Z,526.00
2023-01-02T22:53:33.044Z,521.00
2023-01-02T22:54:33.046Z,524.00
2023-01-02T22:55:33.031Z,525.00
2023-01-02T22:56:33.015Z,522.00
2023-01-02T22:57:33.009Z,524.00
2023-01-02T22:58:33.005Z,524.00
2023-01-02T22:59:33.028Z,515.00
2023-01-02T23:00:32.986Z,519.00
2023-01-02T23:01:33.025Z,523.00
2023-01-02T23:02:32.969Z,520.00
2023-01-02T23:03:32.986Z,519.00
2023-01-02T23:04:33.025Z,521.00
2023-01-02T23:05:32.941Z,522.00
2023-01-02T23:06:35.496Z,523.00
2023-01-02T23:07:32.923Z,524.00
2023-01-02T23:08:32.960Z,524.00
2023-01-02T23:09:32.905Z,524.00
2023-01-02T23:10:32.899Z,521.00
2023-01-02T23:11:32.886Z,525.00
2023-01-02T23:13:32.887Z,518.00
2023-01-02T23:14:32.865Z,522.00
2023-01-02T23:15:32.857Z,518.00
2023-01-02T23:16:32.942Z,519.00
2023-01-02T23:17:32.836Z,519.00
2023-01-02T23:18:32.828Z,520.00
2023-01-02T23:19:32.842Z,519.00
2023-01-02T23:20:32.816Z,519.00
2023-01-02T23:21:32.805Z,518.00
2023-01-02T23:22:32.788Z,516.00
2023-01-02T23:23:32.779Z,522.00
2023-01-02T23:24:32.772Z,517.00
2023-01-02T23:25:32.780Z,520.00
2023-01-02T23:26:32.770Z,518.00
2023-01-02T23:27:32.753Z,519.00
2023-01-02T23:29:05.157Z,519.00
2023-01-02T23:29:32.733Z,520.00
2023-01-02T23:30:32.716Z,521.00
2023-01-02T23:31:32.796Z,521.00
2023-01-02T23:32:32.705Z,521.00
2023-01-02T23:33:32.694Z,524.00
2023-01-02T23:34:32.708Z,520.00
2023-01-02T23:35:32.710Z,521.00
2023-01-02T23:36:32.675Z,522.00
2023-01-02T23:37:32.656Z,517.00
2023-01-02T23:38:32.653Z,515.00
2023-01-02T23:39:32.643Z,517.00
2023-01-02T23:40:34.404Z,518.00
2023-01-02T23:41:32.629Z,519.00
2023-01-02T23:42:32.629Z,519.00
2023-01-02T23:43:32.606Z,518.00
2023-01-02T23:44:32.608Z,521.00
2023-01-02T23:45:32.628Z,518.00
2023-01-02T23:46:32.585Z,523.00
2023-01-02T23:47:32.573Z,522.00
2023-01-02T23:48:32.565Z,521.00
2023-01-02T23:49:32.555Z,514.00
2023-01-02T23:50:32.543Z,517.00
2023-01-02T23:51:32.564Z,515.00
2023-01-02T23:52:32.529Z,517.00
2023-01-02T23:53:32.525Z,512.00
2023-01-02T23:54:32.528Z,516.00
2023-01-02T23:55:32.499Z,517.00
2023-01-02T23:56:32.488Z,516.00
2023-01-02T23:57:32.487Z,514.00
2023-01-02T23:58:32.476Z,515.00
2023-01-02T23:59:32.465Z,515.00
